Time;durP1;ratioP1;P1;durP2;ratioP2;P2;SDS_P1;SDS_P2;PMS_P1;PMS_P2;Temp;Humidity;BMP_temperature;BMP_pressure;BME280_temperature;BME280_humidity;BME280_pressure;Samples;Min_cycle;Max_cycle;Signal;HPM_P1;HPM_P2
2023/11/10 00:02:44;;;;;;;2.10;0.90;;;10.50;99.90;;;;;;5076414;28;21103;-77
2023/11/10 00:05:30;;;;;;;3.77;1.37;;;10.40;99.90;;;;;;5070162;28;21212;-77
2023/11/10 00:08:15;;;;;;;2.10;1.10;;;10.40;99.90;;;;;;5068505;28;20502;-76
2023/11/10 00:11:03;;;;;;;3.83;1.33;;;10.40;99.90;;;;;;5063135;28;21000;-75
2023/11/10 00:13:48;;;;;;;2.07;1.03;;;10.30;99.90;;;;;;5072370;28;20843;-75
2023/11/10 00:16:34;;;;;;;3.43;1.20;;;10.20;99.90;;;;;;5074724;28;20444;-76
2023/11/10 00:19:20;;;;;;;3.83;1.10;;;10.20;99.90;;;;;;5081122;28;20574;-75
2023/11/10 00:22:06;;;;;;;2.73;1.10;;;10.10;99.90;;;;;;5073785;28;20543;-76
2023/11/10 00:24:52;;;;;;;4.03;1.07;;;10.20;99.90;;;;;;5065514;28;20445;-77
2023/11/10 00:27:39;;;;;;;1.40;0.83;;;10.10;99.90;;;;;;5067889;28;20464;-76
2023/11/10 00:30:25;;;;;;;3.73;1.00;;;10.10;99.90;;;;;;5063977;28;20488;-76
2023/11/10 00:33:11;;;;;;;2.70;1.27;;;10.10;99.90;;;;;;5069047;28;20415;-75
2023/11/10 00:35:56;;;;;;;2.97;1.00;;;10.00;99.90;;;;;;5074076;28;20448;-77
2023/11/10 00:38:43;;;;;;;2.27;0.80;;;10.10;99.90;;;;;;5069454;28;20837;-76
2023/11/10 00:41:28;;;;;;;3.13;1.63;;;10.10;99.90;;;;;;5071800;28;20473;-77
2023/11/10 00:44:15;;;;;;;4.73;0.90;;;10.10;99.90;;;;;;5073937;28;20448;-77
2023/11/10 00:47:01;;;;;;;7.77;1.23;;;10.00;99.90;;;;;;5075605;28;20440;-76
2023/11/10 00:49:47;;;;;;;3.83;1.20;;;9.90;99.90;;;;;;5074134;28;20969;-76
2023/11/10 00:52:33;;;;;;;2.17;0.80;;;9.90;99.90;;;;;;5080560;28;20795;-76
2023/11/10 00:55:19;;;;;;;4.73;1.00;;;9.90;99.90;;;;;;5074468;28;20494;-76
2023/11/10 00:58:05;;;;;;;2.57;0.90;;;9.90;99.90;;;;;;5070996;28;20693;-76
2023/11/10 01:00:52;;;;;;;3.67;1.40;;;9.80;99.90;;;;;;5074379;28;20554;-76
2023/11/10 01:03:38;;;;;;;2.13;0.80;;;9.70;99.90;;;;;;5078883;28;20433;-75
2023/11/10 01:06:24;;;;;;;2.30;0.90;;;9.70;99.90;;;;;;5082348;28;20452;-74
2023/11/10 01:09:11;;;;;;;3.37;1.07;;;9.70;99.90;;;;;;5076749;28;20441;-75
2023/11/10 01:11:56;;;;;;;3.57;1.33;;;9.70;99.90;;;;;;5069491;28;20484;-73
2023/11/10 01:14:42;;;;;;;3.07;1.00;;;9.70;99.90;;;;;;5070347;28;20554;-78
2023/11/10 01:17:29;;;;;;;2.57;1.20;;;9.80;99.90;;;;;;5070353;28;20815;-76
2023/11/10 01:20:15;;;;;;;3.93;1.33;;;9.80;99.90;;;;;;5070556;28;20449;-75
2023/11/10 01:23:01;;;;;;;3.63;1.20;;;9.80;99.90;;;;;;5077736;28;20468;-76
2023/11/10 01:25:47;;;;;;;4.43;1.10;;;9.80;99.90;;;;;;5078945;28;20445;-75
2023/11/10 01:28:33;;;;;;;2.40;1.10;;;9.70;99.90;;;;;;5068278;28;20452;-76
2023/11/10 01:31:19;;;;;;;4.00;1.30;;;9.70;99.90;;;;;;5072797;28;20496;-75
2023/11/10 01:34:06;;;;;;;2.53;1.17;;;9.70;99.90;;;;;;5074463;28;20974;-76
2023/11/10 01:36:52;;;;;;;10.80;2.10;;;9.70;99.90;;;;;;5080513;28;20581;-76
2023/11/10 01:39:37;;;;;;;3.00;1.17;;;9.70;99.90;;;;;;5081810;28;20460;-76
2023/11/10 01:42:23;;;;;;;3.37;1.20;;;9.70;99.90;;;;;;5077327;28;21007;-76
2023/11/10 01:45:10;;;;;;;2.27;0.83;;;9.70;99.90;;;;;;5078658;28;20948;-76
2023/11/10 01:47:56;;;;;;;3.10;1.37;;;9.70;99.90;;;;;;5075473;28;20859;-76
2023/11/10 01:50:44;;;;;;;6.73;1.93;;;9.70;99.90;;;;;;5073852;28;20594;-76
2023/11/10 01:53:31;;;;;;;3.43;1.43;;;9.80;99.90;;;;;;5075971;28;20935;-76
2023/11/10 01:56:16;;;;;;;2.50;0.90;;;9.70;99.90;;;;;;5077702;28;20493;-76
2023/11/10 01:59:06;;;;;;;2.17;1.00;;;9.80;99.90;;;;;;5083097;28;20443;-76
2023/11/10 02:01:51;;;;;;;2.80;1.00;;;9.90;99.90;;;;;;5079117;28;20457;-76
2023/11/10 02:04:38;;;;;;;4.03;1.10;;;9.80;99.90;;;;;;5083500;28;20495;-76
2023/11/10 02:07:25;;;;;;;2.47;1.23;;;9.80;99.90;;;;;;5072945;28;20513;-75
2023/11/10 02:10:12;;;;;;;2.50;0.97;;;9.80;99.90;;;;;;5074680;28;20531;-77
2023/11/10 02:12:59;;;;;;;1.77;1.00;;;9.80;99.90;;;;;;5081725;28;20501;-74
2023/11/10 02:15:45;;;;;;;3.63;1.17;;;9.80;99.90;;;;;;5084767;28;20450;-76
2023/11/10 02:18:30;;;;;;;3.00;1.00;;;9.90;99.90;;;;;;5066404;28;20450;-75
2023/11/10 02:21:16;;;;;;;3.80;1.10;;;9.90;99.90;;;;;;5068615;28;20532;-75
2023/11/10 02:24:07;;;;;;;3.50;1.00;;;9.90;99.90;;;;;;5075763;28;20514;-73
2023/11/10 02:26:54;;;;;;;3.53;1.23;;;9.90;99.90;;;;;;5072375;28;20461;-76
2023/11/10 02:29:40;;;;;;;2.60;1.10;;;9.90;99.90;;;;;;5072563;28;20506;-74
2023/11/10 02:32:26;;;;;;;3.83;1.40;;;9.80;99.90;;;;;;5071329;28;20468;-76
2023/11/10 02:35:12;;;;;;;2.00;1.07;;;9.70;99.90;;;;;;5072527;28;20814;-75
2023/11/10 02:37:57;;;;;;;2.90;1.00;;;9.70;99.90;;;;;;5074295;28;20422;-76
2023/11/10 02:40:44;;;;;;;3.10;1.23;;;9.70;99.90;;;;;;5074310;28;20501;-76
2023/11/10 02:43:31;;;;;;;1.93;1.00;;;9.70;99.90;;;;;;5073109;28;20925;-73
2023/11/10 02:46:17;;;;;;;4.50;0.93;;;9.60;99.90;;;;;;5076851;28;20462;-76
2023/11/10 02:49:03;;;;;;;3.77;1.30;;;9.60;99.90;;;;;;5082799;28;20659;-76
2023/11/10 02:51:50;;;;;;;2.23;1.17;;;9.60;99.90;;;;;;5086961;28;20471;-76
2023/11/10 02:54:36;;;;;;;3.17;1.10;;;9.60;99.90;;;;;;5087880;28;20456;-76
2023/11/10 02:57:23;;;;;;;3.10;1.10;;;9.50;99.90;;;;;;5076443;28;20465;-75
2023/11/10 03:00:11;;;;;;;3.27;1.13;;;9.40;99.90;;;;;;5071076;28;20473;-75
2023/11/10 03:02:56;;;;;;;3.57;1.07;;;9.50;99.90;;;;;;5073853;28;20800;-75
2023/11/10 03:05:42;;;;;;;2.90;1.53;;;9.50;99.90;;;;;;5074240;28;20959;-76
2023/11/10 03:08:28;;;;;;;2.63;1.23;;;9.50;99.90;;;;;;5073173;28;20567;-76
2023/11/10 03:11:15;;;;;;;5.20;1.13;;;9.40;99.90;;;;;;5091539;22;21009;-73
2023/11/10 03:14:01;;;;;;;1.70;1.00;;;9.50;99.90;;;;;;5054728;28;20471;-73
2023/11/10 03:16:48;;;;;;;2.63;1.33;;;9.50;99.90;;;;;;5061195;28;20475;-75
2023/11/10 03:19:33;;;;;;;2.70;1.13;;;9.50;99.90;;;;;;5058846;28;20479;-76
2023/11/10 03:22:20;;;;;;;2.57;1.10;;;9.50;99.90;;;;;;5047617;28;20466;-73
2023/11/10 03:25:06;;;;;;;2.97;1.20;;;9.50;99.90;;;;;;5054817;28;20446;-73
2023/11/10 03:27:51;;;;;;;2.00;1.20;;;9.50;99.90;;;;;;5057167;28;20446;-74
2023/11/10 03:30:37;;;;;;;2.47;1.03;;;9.50;99.90;;;;;;5062547;28;20450;-73
2023/11/10 03:33:24;;;;;;;5.37;1.40;;;9.50;99.90;;;;;;5063163;28;20618;-73
2023/11/10 03:36:10;;;;;;;3.23;1.27;;;9.50;99.90;;;;;;5056957;28;20442;-73
2023/11/10 03:38:55;;;;;;;1.97;1.20;;;9.50;99.90;;;;;;5062688;28;21213;-73
2023/11/10 03:41:41;;;;;;;5.43;1.10;;;9.60;99.90;;;;;;5058934;28;20462;-74
2023/11/10 03:44:27;;;;;;;3.63;1.07;;;9.50;99.90;;;;;;5052076;28;20445;-73
2023/11/10 03:47:13;;;;;;;2.90;1.20;;;9.50;99.90;;;;;;5058925;28;20443;-75
2023/11/10 03:49:59;;;;;;;2.33;0.90;;;9.50;99.90;;;;;;5060515;28;20544;-74
2023/11/10 03:52:45;;;;;;;6.67;1.27;;;9.40;99.90;;;;;;5055634;28;21003;-74
2023/11/10 03:55:31;;;;;;;2.47;0.97;;;9.40;99.90;;;;;;5039858;28;20447;-76
2023/11/10 03:58:17;;;;;;;4.43;1.13;;;9.40;99.90;;;;;;5047745;28;20457;-73
2023/11/10 04:01:10;;;;;;;2.50;1.37;;;9.40;99.90;;;;;;5049664;28;20472;-73
2023/11/10 04:03:55;;;;;;;4.83;1.13;;;9.50;99.90;;;;;;5049472;28;20593;-74
2023/11/10 04:06:43;;;;;;;2.63;1.10;;;9.50;99.90;;;;;;5050327;28;20426;-73
2023/11/10 04:09:28;;;;;;;2.60;1.10;;;9.40;99.90;;;;;;5050203;28;20455;-73
2023/11/10 04:12:14;;;;;;;3.20;1.03;;;9.40;99.90;;;;;;5049111;28;20604;-75
2023/11/10 04:14:59;;;;;;;2.17;1.07;;;9.40;99.90;;;;;;5048892;28;20439;-73
2023/11/10 04:17:45;;;;;;;3.00;1.03;;;9.40;99.90;;;;;;5040674;28;20451;-74
2023/11/10 04:20:31;;;;;;;2.33;1.13;;;9.30;99.90;;;;;;5042489;28;20607;-72
2023/11/10 04:23:19;;;;;;;4.27;1.10;;;9.40;99.90;;;;;;5050197;28;20462;-73
2023/11/10 04:26:06;;;;;;;2.33;0.80;;;9.40;99.90;;;;;;5045264;28;20444;-73
2023/11/10 04:28:51;;;;;;;4.53;1.13;;;9.40;99.90;;;;;;5049433;28;20453;-73
2023/11/10 04:31:36;;;;;;;1.80;0.70;;;9.40;99.90;;;;;;5052605;28;20464;-77
2023/11/10 04:34:22;;;;;;;1.70;0.90;;;9.40;99.90;;;;;;5044741;28;20459;-74
2023/11/10 04:37:08;;;;;;;2.10;0.93;;;9.40;99.90;;;;;;5050663;28;20448;-73
2023/11/10 04:39:55;;;;;;;4.67;0.90;;;9.40;99.90;;;;;;5053121;28;20816;-76
2023/11/10 04:42:40;;;;;;;3.33;1.30;;;9.40;99.90;;;;;;5047563;28;20457;-73
2023/11/10 04:45:26;;;;;;;4.73;1.33;;;9.30;99.90;;;;;;5038444;28;20446;-73
2023/11/10 04:48:12;;;;;;;4.40;1.40;;;9.40;99.90;;;;;;5052909;28;20463;-73
2023/11/10 04:50:58;;;;;;;4.97;1.50;;;9.40;99.90;;;;;;5052324;28;21018;-73
2023/11/10 04:53:44;;;;;;;1.80;1.17;;;9.30;99.90;;;;;;5051841;28;20440;-74
2023/11/10 04:56:31;;;;;;;3.87;1.47;;;9.30;99.90;;;;;;5054107;28;20795;-74
2023/11/10 04:59:16;;;;;;;4.17;1.10;;;9.30;99.90;;;;;;5046212;28;20970;-74
2023/11/10 05:02:02;;;;;;;4.00;1.30;;;9.30;99.90;;;;;;5050338;28;20519;-73
2023/11/10 05:04:48;;;;;;;4.17;1.30;;;9.40;99.90;;;;;;5052562;28;20455;-73
2023/11/10 05:07:34;;;;;;;3.00;1.33;;;9.40;99.90;;;;;;5055069;28;21023;-76
2023/11/10 05:10:20;;;;;;;2.80;0.90;;;9.40;99.90;;;;;;5053050;28;20442;-74
2023/11/10 05:13:07;;;;;;;5.40;1.20;;;9.50;99.90;;;;;;5056078;28;20624;-74
2023/11/10 05:15:52;;;;;;;5.07;1.50;;;9.40;99.90;;;;;;5052131;28;20498;-75
2023/11/10 05:18:38;;;;;;;3.30;1.37;;;9.40;99.90;;;;;;5054643;28;20462;-74
2023/11/10 05:21:24;;;;;;;5.50;1.50;;;9.40;99.90;;;;;;5054065;28;20499;-74
2023/11/10 05:24:10;;;;;;;3.30;1.53;;;9.30;99.90;;;;;;5059135;28;20439;-75
2023/11/10 05:26:56;;;;;;;7.57;1.40;;;9.40;99.90;;;;;;5058031;28;20449;-75
2023/11/10 05:29:43;;;;;;;6.40;1.30;;;9.40;99.90;;;;;;5046157;28;20555;-74
2023/11/10 05:32:31;;;;;;;2.13;0.90;;;9.30;99.90;;;;;;5049372;28;20539;-74
2023/11/10 05:35:18;;;;;;;9.23;1.70;;;9.30;99.90;;;;;;5054488;28;20451;-73
2023/11/10 05:38:04;;;;;;;6.20;1.23;;;9.30;99.90;;;;;;5058127;28;20532;-73
2023/11/10 05:40:50;;;;;;;3.00;1.47;;;9.20;99.90;;;;;;5059626;28;20454;-73
2023/11/10 05:43:35;;;;;;;4.90;1.20;;;9.20;99.90;;;;;;5059551;28;20798;-73
2023/11/10 05:46:22;;;;;;;2.67;1.20;;;9.20;99.90;;;;;;5058185;28;20447;-74
2023/11/10 05:49:08;;;;;;;3.33;1.33;;;9.20;99.90;;;;;;5051473;28;20963;-74
2023/11/10 05:51:53;;;;;;;5.70;1.70;;;9.20;99.90;;;;;;5055374;28;20522;-73
2023/11/10 05:54:40;;;;;;;5.03;1.50;;;9.30;99.90;;;;;;5060499;28;20440;-73
2023/11/10 05:57:26;;;;;;;2.57;1.20;;;9.30;99.90;;;;;;5056502;28;20615;-73
2023/11/10 06:00:12;;;;;;;2.10;1.03;;;9.30;99.90;;;;;;5052464;28;20442;-73
2023/11/10 06:03:00;;;;;;;6.53;1.40;;;9.40;99.90;;;;;;5053636;28;21757;-74
2023/11/10 06:05:46;;;;;;;5.60;1.27;;;9.40;99.90;;;;;;5048190;28;20515;-76
2023/11/10 06:08:33;;;;;;;4.63;1.20;;;9.30;99.90;;;;;;5052698;28;20494;-74
2023/11/10 06:11:21;;;;;;;2.43;1.20;;;9.20;99.90;;;;;;5054925;28;20952;-74
2023/11/10 06:14:07;;;;;;;3.93;1.30;;;9.20;99.90;;;;;;5048927;28;20825;-74
2023/11/10 06:16:52;;;;;;;4.20;1.20;;;9.20;99.90;;;;;;5050081;28;20458;-73
2023/11/10 06:19:39;;;;;;;4.03;1.40;;;9.20;99.90;;;;;;5054551;28;20439;-73
2023/11/10 06:22:25;;;;;;;4.00;1.50;;;9.20;99.90;;;;;;5052712;28;20473;-74
2023/11/10 06:25:11;;;;;;;2.60;1.40;;;9.30;99.90;;;;;;5054266;28;20522;-75
2023/11/10 06:27:57;;;;;;;8.23;1.50;;;9.20;99.90;;;;;;5055067;28;20442;-73
2023/11/10 06:30:42;;;;;;;3.07;1.37;;;9.10;99.90;;;;;;5057910;28;20547;-73
2023/11/10 06:33:29;;;;;;;3.10;1.30;;;9.20;99.90;;;;;;5063640;28;20857;-72
2023/11/10 06:36:16;;;;;;;2.83;1.33;;;9.10;99.90;;;;;;5047638;28;20485;-73
2023/11/10 06:39:02;;;;;;;3.50;1.20;;;9.20;99.90;;;;;;5057140;28;20443;-73
2023/11/10 06:41:48;;;;;;;3.80;1.30;;;9.20;99.90;;;;;;5049963;28;20546;-74
2023/11/10 06:44:34;;;;;;;8.00;1.10;;;9.30;99.90;;;;;;5056751;28;20443;-73
2023/11/10 06:47:19;;;;;;;2.93;1.20;;;9.20;99.90;;;;;;5051620;28;20448;-74
2023/11/10 06:50:07;;;;;;;2.10;1.17;;;9.20;99.90;;;;;;5051169;28;20495;-73
2023/11/10 06:52:54;;;;;;;2.73;1.20;;;9.20;99.90;;;;;;5052993;28;20677;-73
2023/11/10 06:55:40;;;;;;;2.23;1.10;;;9.20;99.90;;;;;;5055137;28;20469;-75
2023/11/10 06:58:26;;;;;;;2.20;1.30;;;9.10;99.90;;;;;;5052635;28;20831;-75
2023/11/10 07:01:11;;;;;;;3.33;1.50;;;9.00;99.90;;;;;;5055979;28;20445;-74
2023/11/10 07:03:57;;;;;;;3.00;1.40;;;8.90;99.90;;;;;;5050410;28;20463;-73
2023/11/10 07:06:44;;;;;;;4.57;1.50;;;8.90;99.90;;;;;;5056097;28;20435;-74
2023/11/10 07:09:30;;;;;;;3.10;1.20;;;9.00;99.90;;;;;;5056858;28;20455;-73
2023/11/10 07:12:16;;;;;;;2.10;1.43;;;9.00;99.90;;;;;;5055025;28;20487;-74
2023/11/10 07:15:04;;;;;;;6.40;1.70;;;9.00;99.90;;;;;;5056901;28;20533;-73
2023/11/10 07:17:49;;;;;;;5.20;1.57;;;9.00;99.90;;;;;;5054346;28;21066;-75
2023/11/10 07:20:35;;;;;;;2.93;1.30;;;9.00;99.90;;;;;;5049758;28;21008;-73
2023/11/10 07:23:21;;;;;;;2.50;1.50;;;9.00;99.90;;;;;;5054508;28;20479;-74
2023/11/10 07:26:08;;;;;;;3.50;1.90;;;9.00;99.90;;;;;;5044279;28;21095;-73
2023/11/10 07:28:54;;;;;;;3.87;1.43;;;9.00;99.90;;;;;;5066883;28;20466;-74
2023/11/10 07:31:39;;;;;;;4.60;1.50;;;9.10;99.90;;;;;;5045924;28;20477;-73
2023/11/10 07:34:25;;;;;;;4.17;1.57;;;9.00;99.90;;;;;;5047881;28;20503;-73
2023/11/10 07:37:11;;;;;;;3.03;1.20;;;9.00;99.90;;;;;;5054629;28;20530;-74
2023/11/10 07:39:56;;;;;;;4.33;1.20;;;8.90;99.90;;;;;;5064946;28;20447;-75
2023/11/10 07:42:45;;;;;;;2.53;1.83;;;9.00;99.90;;;;;;5048558;28;20456;-75
2023/11/10 07:45:33;;;;;;;3.53;1.60;;;8.90;99.90;;;;;;5046839;28;20572;-74
2023/11/10 07:48:18;;;;;;;2.10;1.30;;;8.90;99.90;;;;;;5050046;28;20456;-74
2023/11/10 07:51:05;;;;;;;5.60;2.20;;;9.00;99.90;;;;;;5049552;28;20419;-73
2023/11/10 07:53:50;;;;;;;3.13;1.57;;;9.00;99.90;;;;;;5052329;28;20522;-76
2023/11/10 07:56:36;;;;;;;3.20;1.23;;;8.90;99.90;;;;;;5052296;28;20447;-73
2023/11/10 07:59:23;;;;;;;4.30;1.53;;;8.90;99.90;;;;;;5053539;28;20528;-73
2023/11/10 08:02:09;;;;;;;2.73;1.20;;;8.90;99.90;;;;;;5059480;28;20559;-73
2023/11/10 08:04:54;;;;;;;4.23;2.20;;;8.90;99.90;;;;;;5056245;28;20506;-74
2023/11/10 08:07:40;;;;;;;13.33;3.83;;;8.80;99.90;;;;;;5055649;28;20444;-74
2023/11/10 08:10:26;;;;;;;4.30;2.60;;;8.90;99.90;;;;;;5049685;28;20442;-74
2023/11/10 08:13:12;;;;;;;5.73;2.37;;;9.00;99.90;;;;;;5050957;28;20495;-76
2023/11/10 08:15:59;;;;;;;3.90;2.10;;;9.00;99.90;;;;;;5060980;28;20621;-73
2023/11/10 08:18:44;;;;;;;8.53;2.03;;;9.10;99.90;;;;;;5047073;28;20449;-73
2023/11/10 08:21:31;;;;;;;4.50;1.70;;;9.20;99.90;;;;;;5041003;28;20493;-74
2023/11/10 08:24:16;;;;;;;2.70;1.60;;;9.10;99.90;;;;;;5044323;28;20466;-74
2023/11/10 08:27:02;;;;;;;3.03;1.30;;;9.10;99.90;;;;;;5043717;28;20443;-73
2023/11/10 08:29:48;;;;;;;3.67;1.83;;;9.20;99.90;;;;;;5050997;28;20483;-74
2023/11/10 08:32:35;;;;;;;1.93;1.17;;;9.20;99.90;;;;;;5048689;28;20465;-73
2023/11/10 08:35:20;;;;;;;2.83;1.10;;;9.30;99.90;;;;;;5047345;28;20555;-74
2023/11/10 08:38:09;;;;;;;7.47;2.00;;;9.30;99.90;;;;;;5064795;28;20438;-74
2023/11/10 08:40:54;;;;;;;2.17;1.47;;;9.30;99.90;;;;;;5054352;28;20513;-73
2023/11/10 08:43:41;;;;;;;5.77;1.50;;;9.40;99.90;;;;;;5055601;28;20481;-74
2023/11/10 08:46:26;;;;;;;4.03;1.13;;;9.40;99.90;;;;;;5051144;28;20987;-74
2023/11/10 08:49:14;;;;;;;4.33;1.87;;;9.30;99.90;;;;;;5055529;28;20459;-73
2023/11/10 08:52:00;;;;;;;3.63;1.43;;;9.30;99.90;;;;;;5055386;28;20458;-74
2023/11/10 08:54:46;;;;;;;2.30;1.20;;;9.30;99.90;;;;;;5055690;28;20459;-73
2023/11/10 08:57:32;;;;;;;1.77;1.03;;;9.20;99.90;;;;;;5053228;28;20482;-73
2023/11/10 09:00:18;;;;;;;3.73;2.20;;;9.20;99.90;;;;;;5055889;28;20541;-74
2023/11/10 09:03:03;;;;;;;8.17;1.83;;;9.20;99.90;;;;;;5051604;28;20839;-73
2023/11/10 09:05:51;;;;;;;2.73;1.47;;;9.30;99.90;;;;;;5055138;28;20489;-73
2023/11/10 09:08:36;;;;;;;3.53;1.10;;;9.30;99.90;;;;;;5060604;28;20590;-74
2023/11/10 09:13:58;;;;;;;3.70;1.70;;;9.40;99.90;;;;;;5018245;28;20832;-73
2023/11/10 09:16:44;;;;;;;4.10;0.80;;;9.60;99.90;;;;;;5015627;28;20529;-73
2023/11/10 09:19:30;;;;;;;4.00;0.93;;;9.80;99.90;;;;;;5025639;28;20537;-73
2023/11/10 09:22:17;;;;;;;8.80;0.90;;;10.10;99.90;;;;;;5011785;28;20483;-73
2023/11/10 09:25:04;;;;;;;4.50;1.90;;;10.10;99.90;;;;;;4990596;28;21110;-73
2023/11/10 09:27:50;;;;;;;2.43;0.90;;;10.20;99.90;;;;;;4989666;28;20465;-73
2023/11/10 09:30:36;;;;;;;3.57;1.30;;;10.20;99.90;;;;;;4986133;28;20444;-73
2023/11/10 09:33:22;;;;;;;5.27;1.10;;;10.40;99.90;;;;;;4991479;28;20514;-73
2023/11/10 09:36:09;;;;;;;4.30;1.20;;;10.40;99.90;;;;;;4994789;28;20511;-73
2023/11/10 09:38:56;;;;;;;1.90;1.10;;;10.40;99.90;;;;;;5000699;28;20456;-73
2023/11/10 09:41:48;;;;;;;3.43;1.30;;;10.40;99.90;;;;;;5001557;28;20446;-73
2023/11/10 09:44:39;;;;;;;3.10;1.07;;;10.30;99.90;;;;;;4990156;28;20446;-73
2023/11/10 09:47:26;;;;;;;5.00;1.77;;;10.20;99.90;;;;;;4994696;28;20482;-73
2023/11/10 09:50:15;;;;;;;2.00;1.10;;;10.40;99.90;;;;;;4995281;28;20527;-73
2023/11/10 09:53:01;;;;;;;2.10;0.97;;;10.70;99.90;;;;;;4995892;28;20554;-74
2023/11/10 09:55:50;;;;;;;4.10;1.03;;;10.90;99.90;;;;;;4997583;28;20449;-73
2023/11/10 09:58:36;;;;;;;4.10;0.90;;;11.10;99.90;;;;;;4986809;28;20461;-73
2023/11/10 10:01:22;;;;;;;5.10;1.40;;;11.40;99.90;;;;;;4986766;28;20450;-73
2023/11/10 10:04:08;;;;;;;2.90;1.23;;;11.70;99.90;;;;;;5005639;28;21174;-73
2023/11/10 10:06:57;;;;;;;2.23;1.40;;;12.10;99.90;;;;;;5007595;28;20504;-74
2023/11/10 10:09:44;;;;;;;7.20;2.90;;;12.20;99.90;;;;;;4995525;28;20532;-73
2023/11/10 10:12:34;;;;;;;7.87;1.03;;;12.00;99.90;;;;;;4997629;28;20887;-73
2023/11/10 10:15:29;;;;;;;8.07;1.60;;;12.10;99.90;;;;;;4997189;28;20436;-73
2023/11/10 10:18:16;;;;;;;4.03;1.83;;;12.10;99.90;;;;;;4994236;28;20449;-73
2023/11/10 10:21:02;;;;;;;4.30;1.37;;;12.20;99.90;;;;;;4998179;28;20424;-73
2023/11/10 10:23:49;;;;;;;2.87;1.20;;;12.40;99.90;;;;;;4999313;28;20481;-73
2023/11/10 10:26:35;;;;;;;8.77;1.10;;;12.40;99.90;;;;;;4999930;28;20446;-73
2023/11/10 10:29:22;;;;;;;10.80;1.23;;;12.20;99.90;;;;;;5000195;28;20457;-74
2023/11/10 10:32:08;;;;;;;2.67;1.00;;;12.20;99.90;;;;;;5002569;28;20476;-74
2023/11/10 10:34:54;;;;;;;7.60;1.00;;;12.20;99.90;;;;;;4997355;28;20971;-73
2023/11/10 10:37:41;;;;;;;2.83;1.20;;;12.10;99.90;;;;;;5004692;28;20495;-73
2023/11/10 10:40:28;;;;;;;3.30;1.10;;;11.90;99.90;;;;;;4997937;28;20951;-73
2023/11/10 10:43:17;;;;;;;4.33;1.03;;;11.70;99.90;;;;;;4996679;28;20600;-73
2023/11/10 10:46:04;;;;;;;4.20;1.00;;;11.50;99.90;;;;;;4998250;28;20840;-73
2023/11/10 10:48:50;;;;;;;3.30;1.00;;;11.30;99.90;;;;;;5004305;28;20979;-73
2023/11/10 10:51:37;;;;;;;2.20;0.97;;;11.20;99.90;;;;;;5003552;28;20440;-73
2023/11/10 10:54:22;;;;;;;3.50;0.97;;;11.10;99.90;;;;;;5001713;28;20574;-73
2023/11/10 10:57:08;;;;;;;4.13;1.10;;;11.00;99.90;;;;;;4994868;28;20446;-72
2023/11/10 10:59:54;;;;;;;3.90;1.40;;;10.90;99.90;;;;;;4991194;28;20443;-73
2023/11/10 11:02:44;;;;;;;3.53;1.20;;;10.90;99.90;;;;;;4993099;28;20477;-73
2023/11/10 11:05:47;;;;;;;1.80;1.10;;;11.00;99.90;;;;;;4993758;28;20456;-73
2023/11/10 11:08:50;;;;;;;4.93;1.40;;;10.90;99.90;;;;;;4997973;28;20450;-73
2023/11/10 11:11:53;;;;;;;7.60;1.07;;;10.80;99.90;;;;;;4993504;28;20820;-73
2023/11/10 11:14:51;;;;;;;6.30;2.13;;;10.60;99.90;;;;;;4999450;28;20561;-73
2023/11/10 11:18:05;;;;;;;3.30;1.60;;;10.50;99.90;;;;;;4999589;28;21008;-73
2023/11/10 11:20:51;;;;;;;3.20;1.20;;;10.50;99.90;;;;;;5000541;28;20470;-73
2023/11/10 11:23:37;;;;;;;3.50;1.10;;;10.40;99.90;;;;;;4996811;28;20835;-74
2023/11/10 11:26:25;;;;;;;6.60;1.20;;;10.40;99.90;;;;;;4997230;28;20426;-75
2023/11/10 11:29:10;;;;;;;4.23;1.30;;;10.40;99.90;;;;;;4993189;28;20453;-72
2023/11/10 11:32:03;;;;;;;4.13;1.30;;;10.50;99.90;;;;;;4994998;28;20538;-75
2023/11/10 11:34:56;;;;;;;1.70;1.03;;;10.60;99.90;;;;;;4998295;28;20465;-75
2023/11/10 11:37:43;;;;;;;1.70;0.90;;;10.50;99.90;;;;;;4999473;28;20991;-75
2023/11/10 11:40:34;;;;;;;3.30;1.23;;;10.40;99.90;;;;;;4993181;28;20600;-75
2023/11/10 11:43:24;;;;;;;9.27;1.70;;;10.40;99.90;;;;;;4996521;28;20505;-75
2023/11/10 11:46:12;;;;;;;9.57;1.80;;;10.30;99.90;;;;;;4993300;28;20446;-75
2023/11/10 11:48:58;;;;;;;3.17;1.20;;;10.40;99.90;;;;;;4995992;28;20444;-75
2023/11/10 11:51:46;;;;;;;3.20;1.27;;;10.40;99.90;;;;;;4999906;28;20494;-75
2023/11/10 11:54:32;;;;;;;3.60;1.23;;;10.40;99.90;;;;;;4995054;28;20496;-75
2023/11/10 11:57:18;;;;;;;3.67;1.53;;;10.40;99.90;;;;;;4998794;28;20428;-74
2023/11/10 12:00:07;;;;;;;4.77;1.27;;;10.40;99.90;;;;;;4992728;28;21046;-75
2023/11/10 12:02:55;;;;;;;3.50;1.30;;;10.40;99.90;;;;;;4997766;28;20526;-75
2023/11/10 12:05:41;;;;;;;3.90;1.37;;;10.50;99.90;;;;;;4995012;28;20532;-75
2023/11/10 12:08:28;;;;;;;3.27;2.03;;;10.50;99.90;;;;;;4999640;28;20430;-75
2023/11/10 12:11:15;;;;;;;4.20;1.50;;;10.60;99.90;;;;;;4997560;28;21051;-74
2023/11/10 12:14:01;;;;;;;3.77;1.47;;;10.70;99.90;;;;;;4999298;28;20537;-75
2023/11/10 12:16:47;;;;;;;2.80;1.13;;;10.80;99.90;;;;;;5000010;28;20431;-75
2023/11/10 12:19:33;;;;;;;3.30;1.10;;;10.80;99.90;;;;;;4996216;28;20995;-74
2023/11/10 12:22:19;;;;;;;2.50;0.90;;;10.90;99.90;;;;;;4997309;28;20590;-75
2023/11/10 12:25:10;;;;;;;6.83;1.20;;;11.00;99.90;;;;;;4996843;28;20804;-75
2023/11/10 12:27:55;;;;;;;2.70;1.20;;;11.00;99.90;;;;;;4998287;28;20821;-74
2023/11/10 12:30:42;;;;;;;5.03;1.30;;;10.90;99.90;;;;;;4998259;28;20627;-74
2023/11/10 12:33:29;;;;;;;3.77;0.83;;;10.90;99.90;;;;;;5002967;28;20499;-74
2023/11/10 12:36:14;;;;;;;4.17;1.30;;;10.90;99.50;;;;;;4999717;28;20951;-74
2023/11/10 12:39:01;;;;;;;5.33;1.40;;;10.90;99.60;;;;;;4999814;28;20429;-74
2023/11/10 12:41:50;;;;;;;2.40;0.83;;;11.00;99.20;;;;;;4997216;28;20458;-75
2023/11/10 12:44:36;;;;;;;8.33;2.03;;;11.50;99.90;;;;;;4996791;28;20480;-74
2023/11/10 12:47:31;;;;;;;3.37;1.07;;;11.80;92.60;;;;;;5001058;28;20411;-75
2023/11/10 12:50:19;;;;;;;4.37;1.00;;;12.00;91.40;;;;;;4999942;28;20425;-74
2023/11/10 12:53:05;;;;;;;4.30;1.20;;;11.90;91.70;;;;;;4994477;28;21006;-74
2023/11/10 12:55:50;;;;;;;5.53;1.10;;;11.80;87.00;;;;;;5000519;28;21056;-75
2023/11/10 12:58:38;;;;;;;3.27;1.40;;;11.70;90.40;;;;;;4992239;28;20584;-74
2023/11/10 13:01:23;;;;;;;4.60;1.57;;;11.60;90.80;;;;;;4997597;28;20421;-75
2023/11/10 13:04:09;;;;;;;6.50;1.10;;;11.60;91.80;;;;;;5003738;28;20836;-74
2023/11/10 13:06:55;;;;;;;5.70;1.50;;;11.50;93.00;;;;;;4991020;28;20816;-75
2023/11/10 13:09:40;;;;;;;3.77;1.13;;;11.70;93.90;;;;;;4986709;28;20815;-75
2023/11/10 13:12:26;;;;;;;3.53;1.37;;;12.10;89.30;;;;;;4994102;28;20487;-75
2023/11/10 13:15:13;;;;;;;2.53;1.07;;;12.70;88.70;;;;;;4999626;28;20471;-75
2023/11/10 13:17:59;;;;;;;7.50;1.20;;;12.70;86.50;;;;;;4993854;28;20452;-74
2023/11/10 13:20:44;;;;;;;6.43;1.30;;;12.40;78.50;;;;;;4984501;28;20465;-74
2023/11/10 13:23:31;;;;;;;3.97;1.10;;;12.10;85.10;;;;;;4983203;28;20488;-74
2023/11/10 13:26:19;;;;;;;6.97;1.43;;;11.80;86.20;;;;;;4993924;28;20429;-75
2023/11/10 13:29:05;;;;;;;5.43;1.50;;;11.70;90.10;;;;;;5000040;28;21006;-74
2023/11/10 13:31:56;;;;;;;10.33;1.40;;;11.70;90.40;;;;;;4987736;28;20551;-75
2023/11/10 13:34:42;;;;;;;6.93;1.53;;;11.70;93.00;;;;;;4997631;28;20396;-75
2023/11/10 13:37:27;;;;;;;2.47;1.00;;;11.70;90.90;;;;;;4999973;28;20424;-75
2023/11/10 13:40:14;;;;;;;5.27;1.63;;;11.60;90.10;;;;;;5000337;28;20452;-75
2023/11/10 13:43:01;;;;;;;4.90;1.67;;;11.70;95.40;;;;;;4991004;28;20440;-75
2023/11/10 13:45:47;;;;;;;7.17;1.90;;;11.70;91.10;;;;;;4996600;28;20496;-75
2023/11/10 13:48:34;;;;;;;4.30;1.13;;;11.70;91.50;;;;;;5004314;28;20452;-74
2023/11/10 13:51:20;;;;;;;5.27;1.53;;;11.70;87.80;;;;;;4999019;28;20975;-75
2023/11/10 13:54:06;;;;;;;4.20;1.23;;;11.70;89.20;;;;;;4996040;28;20452;-75
2023/11/10 13:56:53;;;;;;;6.30;1.07;;;11.60;90.10;;;;;;4997583;28;20460;-74
2023/11/10 13:59:40;;;;;;;6.00;1.50;;;11.50;85.70;;;;;;4993319;28;20579;-74
2023/11/10 14:02:26;;;;;;;7.30;2.00;;;11.40;86.30;;;;;;4993960;28;20982;-75
2023/11/10 14:05:14;;;;;;;3.37;1.60;;;11.30;89.10;;;;;;4991012;28;20522;-75
2023/11/10 14:07:59;;;;;;;5.03;2.13;;;11.40;92.00;;;;;;4991169;28;20536;-75
2023/11/10 14:10:45;;;;;;;5.13;1.10;;;11.40;92.00;;;;;;4991858;28;21097;-75
2023/11/10 14:13:32;;;;;;;5.70;1.50;;;11.40;91.30;;;;;;4996710;28;20581;-75
2023/11/10 14:16:17;;;;;;;3.93;1.33;;;11.20;89.40;;;;;;4990703;28;20452;-75
2023/11/10 14:19:03;;;;;;;3.00;1.20;;;11.20;92.80;;;;;;5000588;28;20448;-75
2023/11/10 14:21:50;;;;;;;7.30;1.53;;;11.10;92.20;;;;;;4991998;28;20473;-74
2023/11/10 14:24:35;;;;;;;8.93;2.03;;;11.00;93.80;;;;;;4998326;28;20500;-75
2023/11/10 14:27:22;;;;;;;3.40;1.00;;;10.90;95.80;;;;;;4992116;28;20491;-75
2023/11/10 14:30:09;;;;;;;6.30;1.13;;;10.80;97.00;;;;;;4995066;28;20522;-75
2023/11/10 14:32:56;;;;;;;3.30;1.20;;;10.70;99.60;;;;;;4994046;28;20479;-75
2023/11/10 14:35:42;;;;;;;4.63;1.00;;;10.70;99.10;;;;;;4990504;28;20514;-75
2023/11/10 14:38:31;;;;;;;4.50;1.50;;;10.70;99.90;;;;;;4999669;28;20505;-75